Time;durP1;ratioP1;P1;durP2;ratioP2;P2;SDS_P1;SDS_P2;PMS_P1;PMS_P2;Temp;Humidity;BMP_temperature;BMP_pressure;BME280_temperature;BME280_humidity;BME280_pressure;Samples;Min_cycle;Max_cycle;Signal;HPM_P1;HPM_P2
2021/06/29 00:00:39;;;;;;;;;;;17.90;99.90;;;;;;5028107;28;20313;-66
2021/06/29 00:03:28;;;;;;;;;;;17.90;99.90;;;;;;5035570;28;20374;-66
2021/06/29 00:06:16;;;;;;;;;;;18.00;99.90;;;;;;5031204;28;20730;-69
2021/06/29 00:09:06;;;;;;;;;;;18.00;99.90;;;;;;5027556;28;20281;-66
2021/06/29 00:11:55;;;;;;;;;;;18.00;99.90;;;;;;5035476;28;19975;-66
2021/06/29 00:14:44;;;;;;;;;;;18.00;99.90;;;;;;5030193;28;20035;-66
2021/06/29 00:17:34;;;;;;;;;;;17.90;99.90;;;;;;5024275;28;19933;-66
2021/06/29 00:20:23;;;;;;;;;;;17.80;99.90;;;;;;5027229;28;20385;-67
2021/06/29 00:23:11;;;;;;;;;;;17.70;99.90;;;;;;5028924;28;19929;-66
2021/06/29 00:26:00;;;;;;;;;;;17.60;99.90;;;;;;5031447;28;20373;-66
2021/06/29 00:28:49;;;;;;;;;;;17.60;99.90;;;;;;5034287;28;20366;-65
2021/06/29 00:31:37;;;;;;;;;;;17.60;99.90;;;;;;5028460;28;20296;-68
2021/06/29 00:34:28;;;;;;;;;;;17.50;99.90;;;;;;5029196;28;19972;-65
2021/06/29 00:37:17;;;;;;;;;;;17.50;99.90;;;;;;5034967;28;20080;-65
2021/06/29 00:40:07;;;;;;;;;;;17.50;99.90;;;;;;5025416;28;19965;-66
2021/06/29 00:42:55;;;;;;;;;;;17.60;99.90;;;;;;5030578;28;20265;-66
2021/06/29 00:45:44;;;;;;;;;;;17.60;99.90;;;;;;5028131;28;19932;-69
2021/06/29 00:48:33;;;;;;;;;;;17.60;99.90;;;;;;5033915;28;20310;-66
2021/06/29 00:51:26;;;;;;;;;;;17.60;99.90;;;;;;5033075;28;19925;-66
2021/06/29 00:54:15;;;;;;;;;;;17.50;99.90;;;;;;5034192;28;19947;-67
2021/06/29 00:57:04;;;;;;;;;;;17.50;99.90;;;;;;5026596;28;19925;-66
2021/06/29 00:59:53;;;;;;;;;;;17.60;99.90;;;;;;5019756;28;20294;-67
2021/06/29 01:02:41;;;;;;;;;;;17.50;99.90;;;;;;5013055;28;19932;-66
2021/06/29 01:05:30;;;;;;;;;;;17.50;99.90;;;;;;5012898;28;19944;-66
2021/06/29 01:08:21;;;;;;;;;;;17.50;99.90;;;;;;5016680;28;20071;-66
2021/06/29 01:11:10;;;;;;;;;;;17.50;99.90;;;;;;5010730;28;19933;-68
2021/06/29 01:14:09;;;;;;;;;;;17.40;99.90;;;;;;5018114;28;20031;-68
2021/06/29 01:16:58;;;;;;;;;;;17.40;99.90;;;;;;5012009;28;19929;-66
2021/06/29 01:19:48;;;;;;;;;;;17.40;99.90;;;;;;5019683;28;19925;-65
2021/06/29 01:22:38;;;;;;;;;;;17.50;99.90;;;;;;5016965;28;19932;-65
2021/06/29 01:25:28;;;;;;;;;;;17.50;99.90;;;;;;5018281;28;20048;-66
2021/06/29 01:28:20;;;;;;;;;;;17.50;99.90;;;;;;5011794;28;20798;-65
2021/06/29 01:31:10;;;;;;;;;;;17.60;99.90;;;;;;5006216;28;19965;-67
2021/06/29 01:33:59;;;;;;;;;;;17.60;99.90;;;;;;5014634;28;20274;-66
2021/06/29 01:36:49;;;;;;;;;;;17.60;99.90;;;;;;5014610;28;19937;-66
2021/06/29 01:39:49;;;;;;;;;;;17.70;99.90;;;;;;5026864;28;19932;-65
2021/06/29 01:42:38;;;;;;;;;;;17.60;99.90;;;;;;5043073;28;19925;-66
2021/06/29 01:45:29;;;;;;;;;;;17.60;99.90;;;;;;5030876;28;20073;-66
2021/06/29 01:48:21;;;;;;;;;;;17.50;99.90;;;;;;5034426;28;19929;-66
2021/06/29 01:51:09;;;;;;;;;;;17.50;99.90;;;;;;5035594;28;19925;-66
2021/06/29 01:54:03;;;;;;;;;;;17.50;99.90;;;;;;5034279;28;19929;-65
2021/06/29 01:56:54;;;;;;;;;;;17.60;99.90;;;;;;5028484;28;20032;-65
2021/06/29 01:59:45;;;;;;;;;;;17.50;99.90;;;;;;5023377;28;19925;-65
2021/06/29 02:02:34;;;;;;;;;;;17.70;99.90;;;;;;5032390;28;19925;-65
2021/06/29 02:05:23;;;;;;;;;;;17.70;99.90;;;;;;5031437;28;19929;-66
2021/06/29 02:08:12;;;;;;;;;;;17.70;99.90;;;;;;5047863;28;19940;-66
2021/06/29 02:11:01;;;;;;;;;;;17.80;99.90;;;;;;5036254;28;19925;-68
2021/06/29 02:13:51;;;;;;;;;;;17.80;99.90;;;;;;5031472;28;19932;-65
2021/06/29 02:16:39;;;;;;;;;;;17.80;99.90;;;;;;5024481;28;19981;-65
2021/06/29 02:19:28;;;;;;;;;;;17.80;99.90;;;;;;5032020;28;19932;-67
2021/06/29 02:22:16;;;;;;;;;;;17.70;99.90;;;;;;5032803;28;20035;-65
2021/06/29 02:25:05;;;;;;;;;;;17.70;99.90;;;;;;5022625;28;19929;-65
2021/06/29 02:27:54;;;;;;;;;;;17.70;99.90;;;;;;5024237;28;20393;-66
2021/06/29 02:30:44;;;;;;;;;;;17.70;99.90;;;;;;5020422;28;20280;-68
2021/06/29 02:33:32;;;;;;;;;;;17.70;99.90;;;;;;5033132;28;19932;-65
2021/06/29 02:36:21;;;;;;;;;;;17.60;99.90;;;;;;5026966;28;19983;-65
2021/06/29 02:39:09;;;;;;;;;;;17.60;99.90;;;;;;5032403;28;19970;-65
2021/06/29 02:41:58;;;;;;;;;;;17.60;99.90;;;;;;5024531;28;20668;-65
2021/06/29 02:44:46;;;;;;;;;;;17.60;99.90;;;;;;5031197;28;19928;-65
2021/06/29 02:47:38;;;;;;;;;;;17.60;99.90;;;;;;5028115;28;20269;-65
2021/06/29 02:50:26;;;;;;;;;;;17.60;99.90;;;;;;5033857;28;20030;-66
2021/06/29 02:53:15;;;;;;;;;;;17.50;99.90;;;;;;5032785;28;20008;-65
2021/06/29 02:56:04;;;;;;;;;;;17.40;99.90;;;;;;5018680;28;19968;-66
2021/06/29 02:58:53;;;;;;;;;;;17.40;99.90;;;;;;5031234;28;20012;-65
2021/06/29 03:01:42;;;;;;;;;;;17.40;99.90;;;;;;5032383;28;19966;-66
2021/06/29 03:04:36;;;;;;;;;;;17.40;99.90;;;;;;5021633;28;20010;-66
2021/06/29 03:07:25;;;;;;;;;;;17.30;99.90;;;;;;5032631;28;19932;-66
2021/06/29 03:10:13;;;;;;;;;;;17.30;99.90;;;;;;5032694;28;19929;-65
2021/06/29 03:13:02;;;;;;;;;;;17.30;99.90;;;;;;5027408;28;20384;-65
2021/06/29 03:15:51;;;;;;;;;;;17.30;99.90;;;;;;5032218;28;19925;-65
2021/06/29 03:18:39;;;;;;;;;;;17.30;99.90;;;;;;5042014;28;19991;-66
2021/06/29 03:21:29;;;;;;;;;;;17.30;99.90;;;;;;5044352;28;19956;-66
2021/06/29 03:27:31;;;;;;;;;;;17.40;99.90;;;;;;5045844;28;19925;-68
2021/06/29 03:30:20;;;;;;;;;;;17.40;99.90;;;;;;5045489;28;19939;-66
2021/06/29 03:33:08;;;;;;;;;;;17.40;99.90;;;;;;5035742;28;19925;-67
2021/06/29 03:35:57;;;;;;;;;;;17.40;99.90;;;;;;5034441;28;19932;-65
2021/06/29 03:42:00;;;;;;;;;;;17.60;99.90;;;;;;5042172;28;19925;-65
2021/06/29 03:44:49;;;;;;;;;;;17.60;99.90;;;;;;5026207;28;20337;-66
2021/06/29 03:47:38;;;;;;;;;;;17.60;99.90;;;;;;5032219;28;19925;-68
2021/06/29 03:50:26;;;;;;;;;;;17.70;99.90;;;;;;5031509;28;19929;-65
2021/06/29 03:53:15;;;;;;;;;;;17.70;99.90;;;;;;5020789;28;20269;-67
2021/06/29 03:56:05;;;;;;;;;;;17.80;99.90;;;;;;5027127;28;19929;-67
2021/06/29 03:58:55;;;;;;;;;;;17.70;99.90;;;;;;5033983;28;20758;-65
2021/06/29 04:01:44;;;;;;;;;;;17.60;99.90;;;;;;5028651;28;20048;-65
2021/06/29 04:04:35;;;;;;;;;;;17.70;99.90;;;;;;5035114;28;19929;-66
2021/06/29 04:07:24;;;;;;;;;;;17.70;99.90;;;;;;5028999;28;20251;-65
2021/06/29 04:10:14;;;;;;;;;;;17.80;99.90;;;;;;5035355;28;20377;-65
2021/06/29 04:13:04;;;;;;;;;;;17.80;99.90;;;;;;5034255;28;20203;-65
2021/06/29 04:15:53;;;;;;;;;;;17.90;99.90;;;;;;5022318;28;19993;-66
2021/06/29 04:18:42;;;;;;;;;;;17.90;99.90;;;;;;5035464;28;20016;-66
2021/06/29 04:21:31;;;;;;;;;;;17.90;99.90;;;;;;5032917;28;19925;-66
2021/06/29 04:24:44;;;;;;;;;;;17.80;99.90;;;;;;5035815;28;20284;-66
2021/06/29 04:27:35;;;;;;;;;;;17.70;99.90;;;;;;5019458;28;19975;-66
2021/06/29 04:30:25;;;;;;;;;;;17.80;99.90;;;;;;5013459;28;19929;-65
2021/06/29 04:33:14;;;;;;;;;;;17.80;99.90;;;;;;5037916;28;20019;-65
2021/06/29 04:36:03;;;;;;;;;;;17.80;99.90;;;;;;5032450;28;20036;-64
2021/06/29 04:39:17;;;;;;;;;;;17.60;99.90;;;;;;5030851;28;20056;-64
2021/06/29 04:42:06;;;;;;;;;;;17.60;99.90;;;;;;5018939;28;19929;-65
2021/06/29 04:44:55;;;;;;;;;;;17.70;99.90;;;;;;5018522;28;20377;-65
2021/06/29 04:47:47;;;;;;;;;;;17.70;99.90;;;;;;5030242;28;20268;-66
2021/06/29 04:50:35;;;;;;;;;;;17.70;99.90;;;;;;5029210;28;19925;-65
2021/06/29 04:53:24;;;;;;;;;;;17.70;99.90;;;;;;5034063;28;19933;-65
2021/06/29 04:56:18;;;;;;;;;;;17.70;99.90;;;;;;5018275;28;20074;-66
2021/06/29 04:59:32;;;;;;;;;;;17.70;99.90;;;;;;5039387;28;19933;-65
2021/06/29 05:02:21;;;;;;;;;;;17.70;99.90;;;;;;5035774;28;20384;-70
2021/06/29 05:05:12;;;;;;;;;;;17.70;99.90;;;;;;5026687;28;19929;-66
2021/06/29 05:08:00;;;;;;;;;;;17.60;99.90;;;;;;5035359;28;19932;-65
2021/06/29 05:10:49;;;;;;;;;;;17.60;99.90;;;;;;5027982;28;20008;-66
2021/06/29 05:13:38;;;;;;;;;;;17.60;99.90;;;;;;5035774;28;20274;-65
2021/06/29 05:16:27;;;;;;;;;;;17.70;99.90;;;;;;5024436;28;19925;-65
2021/06/29 05:19:15;;;;;;;;;;;17.70;99.90;;;;;;5032316;28;19929;-66
2021/06/29 05:22:05;;;;;;;;;;;17.70;99.90;;;;;;5037345;28;20166;-65
2021/06/29 05:24:54;;;;;;;;;;;17.70;99.90;;;;;;5030362;28;20415;-65
2021/06/29 05:27:43;;;;;;;;;;;17.70;99.90;;;;;;5037392;28;19925;-65
2021/06/29 05:30:31;;;;;;;;;;;17.90;99.90;;;;;;5029778;28;19925;-65
2021/06/29 05:33:21;;;;;;;;;;;17.90;99.90;;;;;;5032812;28;20380;-65
2021/06/29 05:36:09;;;;;;;;;;;18.00;99.90;;;;;;5014410;28;19929;-65
2021/06/29 05:42:12;;;;;;;;;;;18.30;99.90;;;;;;5023890;28;19925;-65
2021/06/29 05:45:01;;;;;;;;;;;18.20;99.90;;;;;;5034082;28;19936;-65
2021/06/29 05:47:50;;;;;;;;;;;18.40;99.90;;;;;;5029898;28;19925;-64
2021/06/29 05:50:39;;;;;;;;;;;18.70;99.90;;;;;;5036418;28;20328;-65
2021/06/29 05:53:31;;;;;;;;;;;18.80;99.90;;;;;;5036654;28;20003;-65
2021/06/29 05:56:21;;;;;;;;;;;18.50;99.90;;;;;;5031677;28;19925;-65
2021/06/29 05:59:34;;;;;;;;;;;18.50;99.90;;;;;;5017091;28;19925;-65
2021/06/29 06:02:23;;;;;;;;;;;18.30;99.90;;;;;;5007823;28;19944;-64
2021/06/29 06:05:12;;;;;;;;;;;18.60;99.90;;;;;;5020202;28;20024;-65
2021/06/29 06:08:25;;;;;;;;;;;18.60;99.90;;;;;;5015928;28;19969;-65
2021/06/29 06:11:14;;;;;;;;;;;18.70;99.90;;;;;;5013262;28;19940;-66
2021/06/29 06:14:04;;;;;;;;;;;18.90;99.90;;;;;;5011976;28;19931;-65
2021/06/29 06:16:52;;;;;;;;;;;18.80;99.90;;;;;;5005877;28;19925;-64
2021/06/29 06:19:41;;;;;;;;;;;18.80;99.90;;;;;;5015236;28;19941;-64
2021/06/29 06:22:29;;;;;;;;;;;19.20;99.90;;;;;;5013582;28;20018;-65
2021/06/29 06:25:18;;;;;;;;;;;19.40;99.90;;;;;;5013199;28;19925;-65
2021/06/29 06:28:06;;;;;;;;;;;19.70;99.90;;;;;;5015579;28;19936;-66
2021/06/29 06:30:56;;;;;;;;;;;19.50;99.90;;;;;;5007574;28;19941;-68
2021/06/29 06:33:45;;;;;;;;;;;19.50;99.90;;;;;;5014613;28;19929;-66
2021/06/29 06:36:34;;;;;;;;;;;19.80;99.90;;;;;;5015854;28;19925;-65
2021/06/29 06:39:22;;;;;;;;;;;19.60;99.90;;;;;;5017264;28;19925;-66
2021/06/29 06:42:11;;;;;;;;;;;19.60;99.90;;;;;;5013281;28;20345;-66
2021/06/29 06:45:00;;;;;;;;;;;19.60;99.90;;;;;;5012370;28;19949;-65
2021/06/29 06:47:50;;;;;;;;;;;20.00;99.90;;;;;;5014540;28;19929;-66
2021/06/29 06:50:38;;;;;;;;;;;20.20;99.90;;;;;;5013708;28;19926;-66
2021/06/29 06:53:27;;;;;;;;;;;20.30;99.90;;;;;;5013727;28;19945;-65
2021/06/29 06:56:15;;;;;;;;;;;20.50;99.90;;;;;;5015251;28;20075;-66
2021/06/29 06:59:04;;;;;;;;;;;20.20;99.90;;;;;;5025995;28;19926;-68
2021/06/29 07:02:17;;;;;;;;;;;20.30;99.90;;;;;;5014588;28;19933;-67
2021/06/29 07:05:08;;;;;;;;;;;20.40;99.90;;;;;;5014425;28;19979;-66
2021/06/29 07:11:09;;;;;;;;;;;20.40;99.90;;;;;;5012281;28;20024;-66
2021/06/29 07:13:57;;;;;;;;;;;20.70;99.90;;;;;;5012207;28;19936;-65
2021/06/29 07:16:46;;;;;;;;;;;20.30;99.90;;;;;;5006199;28;19992;-66
2021/06/29 07:19:34;;;;;;;;;;;20.20;99.90;;;;;;5009482;28;19973;-65
2021/06/29 07:22:24;;;;;;;;;;;20.40;99.90;;;;;;5013859;28;20388;-65
2021/06/29 07:25:12;;;;;;;;;;;21.90;99.90;;;;;;5011757;28;20267;-66
2021/06/29 07:28:01;;;;;;;;;;;22.30;99.90;;;;;;5012865;28;20405;-66
2021/06/29 07:30:50;;;;;;;;;;;21.90;99.90;;;;;;5006923;28;19926;-66
2021/06/29 07:33:41;;;;;;;;;;;21.50;99.90;;;;;;5011855;28;19926;-65
2021/06/29 07:36:30;;;;;;;;;;;21.30;99.90;;;;;;5011912;28;19925;-65
2021/06/29 07:39:20;;;;;;;;;;;21.00;99.90;;;;;;5007709;28;19925;-61
2021/06/29 07:42:08;;;;;;;;;;;20.70;99.90;;;;;;5010602;28;19953;-62
2021/06/29 07:44:57;;;;;;;;;;;20.30;99.90;;;;;;5011968;28;20763;-62
2021/06/29 07:47:46;;;;;;;;;;;20.30;99.90;;;;;;5008655;28;19933;-62
2021/06/29 07:50:34;;;;;;;;;;;20.10;99.90;;;;;;5010462;28;20064;-64
2021/06/29 07:53:23;;;;;;;;;;;19.70;99.90;;;;;;5007290;28;19979;-62
2021/06/29 07:56:14;;;;;;;;;;;19.70;99.90;;;;;;5011584;28;19925;-61
2021/06/29 07:59:04;;;;;;;;;;;19.60;99.90;;;;;;5018981;28;19992;-62
2021/06/29 08:02:17;;;;;;;;;;;19.50;99.90;;;;;;5026388;28;20373;-62
2021/06/29 08:05:07;;;;;;;;;;;19.60;99.90;;;;;;5034856;28;19940;-64
2021/06/29 08:08:22;;;;;;;;;;;19.50;99.90;;;;;;5029814;28;19941;-61
2021/06/29 08:11:11;;;;;;;;;;;19.60;99.90;;;;;;5034151;28;19948;-62
2021/06/29 08:14:01;;;;;;;;;;;20.00;99.90;;;;;;5031465;28;19925;-62
2021/06/29 08:16:49;;;;;;;;;;;20.00;99.90;;;;;;5014738;28;19925;-62
2021/06/29 08:19:38;;;;;;;;;;;20.10;99.90;;;;;;5033109;28;19926;-62
2021/06/29 08:22:27;;;;;;;;;;;20.40;99.90;;;;;;5033434;28;20014;-62
2021/06/29 08:25:15;;;;;;;;;;;21.00;99.90;;;;;;5027052;28;20388;-62
2021/06/29 08:28:04;;;;;;;;;;;22.50;99.90;;;;;;5034144;28;19976;-62
2021/06/29 08:30:54;;;;;;;;;;;24.40;99.90;;;;;;5026999;28;19932;-64
2021/06/29 08:33:43;;;;;;;;;;;25.40;99.90;;;;;;5028565;28;19935;-62
2021/06/29 08:36:33;;;;;;;;;;;26.20;99.90;;;;;;5032974;28;19936;-62
2021/06/29 08:39:21;;;;;;;;;;;27.10;99.90;;;;;;5026601;28;20038;-63
2021/06/29 08:42:11;;;;;;;;;;;28.00;99.10;;;;;;5029019;28;20297;-63
2021/06/29 08:45:00;;;;;;;;;;;28.20;97.80;;;;;;5034175;28;19925;-62
2021/06/29 08:47:50;;;;;;;;;;;28.50;97.10;;;;;;5033383;28;20008;-62
2021/06/29 08:50:40;;;;;;;;;;;28.00;97.30;;;;;;5029172;28;20324;-62
2021/06/29 08:53:28;;;;;;;;;;;27.80;97.80;;;;;;5034238;28;19952;-63
2021/06/29 08:56:17;;;;;;;;;;;28.00;97.40;;;;;;5032069;28;19929;-63
2021/06/29 09:02:19;;;;;;;;;;;28.30;97.00;;;;;;5007090;28;20289;-63
2021/06/29 09:05:18;;;;;;;;;;;30.90;94.70;;;;;;5012844;28;20448;-64
2021/06/29 09:08:11;;;;;;;;;;;33.30;88.10;;;;;;5011615;28;20028;-64
2021/06/29 09:11:11;;;;;;;;;;;35.40;79.20;;;;;;5011398;28;20031;-63
2021/06/29 09:14:04;;;;;;;;;;;33.80;72.80;;;;;;4989681;28;20266;-63
2021/06/29 09:16:53;;;;;;;;;;;29.30;86.30;;;;;;5004297;28;20278;-63
2021/06/29 09:19:41;;;;;;;;;;;28.80;88.10;;;;;;5015794;28;19925;-63
2021/06/29 09:22:32;;;;;;;;;;;29.10;90.20;;;;;;5010917;28;19934;-65
2021/06/29 09:25:25;;;;;;;;;;;29.40;92.10;;;;;;5007801;28;19925;-63
2021/06/29 09:28:14;;;;;;;;;;;29.80;88.50;;;;;;5011704;28;20358;-63
2021/06/29 09:31:04;;;;;;;;;;;29.30;92.40;;;;;;5004317;28;19925;-63
2021/06/29 09:33:53;;;;;;;;;;;29.40;91.80;;;;;;5011970;28;19926;-63
2021/06/29 09:36:42;;;;;;;;;;;30.80;87.80;;;;;;5010524;28;19926;-64
2021/06/29 09:39:32;;;;;;;;;;;28.60;91.10;;;;;;5011452;28;19926;-64
2021/06/29 09:42:26;;;;;;;;;;;30.50;87.70;;;;;;5010067;28;19983;-64
2021/06/29 09:45:29;;;;;;;;;;;29.60;90.20;;;;;;5005105;28;19940;-64
2021/06/29 09:48:18;;;;;;;;;;;28.00;93.20;;;;;;5009897;28;19940;-64
2021/06/29 09:51:12;;;;;;;;;;;26.40;96.70;;;;;;5010387;28;19925;-64
2021/06/29 09:54:04;;;;;;;;;;;25.70;97.40;;;;;;5007630;28;19948;-66
2021/06/29 09:56:54;;;;;;;;;;;25.30;99.90;;;;;;5009795;28;19926;-64
2021/06/29 09:59:44;;;;;;;;;;;25.90;99.70;;;;;;5024235;28;19941;-64
2021/06/29 10:02:33;;;;;;;;;;;25.70;98.90;;;;;;5028656;28;19929;-64
2021/06/29 10:05:22;;;;;;;;;;;24.50;99.90;;;;;;5024906;28;19925;-63
2021/06/29 10:08:10;;;;;;;;;;;23.60;99.90;;;;;;5028921;28;19929;-64
2021/06/29 10:14:24;;;;;;;;;;;24.90;99.90;;;;;;5010658;28;19936;-64
2021/06/29 10:17:13;;;;;;;;;;;24.60;99.90;;;;;;5018447;28;19925;-62
2021/06/29 10:20:12;;;;;;;;;;;25.00;99.90;;;;;;5024330;28;20432;-62
2021/06/29 10:23:01;;;;;;;;;;;25.00;99.90;;;;;;5035790;28;19933;-63
2021/06/29 10:25:50;;;;;;;;;;;24.50;99.90;;;;;;5027199;28;19936;-65
2021/06/29 10:28:39;;;;;;;;;;;26.20;99.90;;;;;;5031620;28;20071;-64
2021/06/29 10:31:30;;;;;;;;;;;25.80;99.00;;;;;;5011531;28;19929;-63
2021/06/29 10:34:19;;;;;;;;;;;25.10;99.90;;;;;;5030888;28;19925;-64
2021/06/29 10:37:08;;;;;;;;;;;25.20;99.90;;;;;;5033108;28;19929;-64
2021/06/29 10:39:58;;;;;;;;;;;25.90;99.90;;;;;;5030602;28;19948;-63
2021/06/29 10:42:46;;;;;;;;;;;25.70;99.90;;;;;;5033745;28;19925;-65
2021/06/29 10:45:36;;;;;;;;;;;25.30;99.90;;;;;;5017498;28;20333;-62
2021/06/29 10:48:27;;;;;;;;;;;25.30;99.90;;;;;;5027534;28;20093;-61
2021/06/29 10:51:15;;;;;;;;;;;25.30;99.90;;;;;;5027779;28;19987;-62
2021/06/29 10:54:04;;;;;;;;;;;24.90;99.90;;;;;;5032599;28;19933;-63
2021/06/29 10:56:53;;;;;;;;;;;24.10;99.90;;;;;;5029123;28;20075;-63
2021/06/29 10:59:42;;;;;;;;;;;24.00;99.90;;;;;;5031115;28;19925;-63
2021/06/29 11:02:58;;;;;;;;;;;24.20;99.90;;;;;;5031931;28;19925;-63
2021/06/29 11:06:00;;;;;;;;;;;25.30;99.90;;;;;;5024277;28;19925;-62
2021/06/29 11:08:49;;;;;;;;;;;27.60;97.40;;;;;;5019334;28;19929;-63
2021/06/29 11:11:38;;;;;;;;;;;28.20;95.50;;;;;;5024653;28;19932;-63
2021/06/29 11:14:28;;;;;;;;;;;27.50;96.30;;;;;;5017047;28;19932;-63
2021/06/29 11:17:17;;;;;;;;;;;26.10;99.80;;;;;;5025426;28;19926;-62
2021/06/29 11:20:09;;;;;;;;;;;25.20;99.90;;;;;;5032658;28;19929;-63
2021/06/29 11:23:00;;;;;;;;;;;25.70;99.90;;;;;;5032028;28;19925;-65
2021/06/29 11:25:53;;;;;;;;;;;26.80;98.10;;;;;;5027719;28;20038;-63
2021/06/29 11:29:03;;;;;;;;;;;27.30;97.20;;;;;;5031957;28;20480;-63
2021/06/29 11:31:55;;;;;;;;;;;27.00;97.10;;;;;;5025258;28;20004;-62
2021/06/29 11:34:44;;;;;;;;;;;26.40;96.80;;;;;;5031768;28;20396;-63
2021/06/29 11:37:48;;;;;;;;;;;26.00;98.10;;;;;;5036345;28;19935;-62
2021/06/29 11:40:39;;;;;;;;;;;25.60;99.10;;;;;;5031149;28;19932;-62
2021/06/29 11:43:28;;;;;;;;;;;25.60;99.30;;;;;;5035857;28;20312;-62
2021/06/29 11:46:32;;;;;;;;;;;25.30;99.40;;;;;;5031064;28;19925;-62
2021/06/29 11:49:42;;;;;;;;;;;25.80;99.90;;;;;;5034310;28;19931;-63
2021/06/29 11:52:32;;;;;;;;;;;25.30;98.90;;;;;;5051846;28;19929;-63
2021/06/29 11:55:20;;;;;;;;;;;25.20;99.70;;;;;;5039947;28;19932;-62
2021/06/29 11:58:13;;;;;;;;;;;25.60;99.00;;;;;;5035043;28;19925;-63
2021/06/29 12:01:06;;;;;;;;;;;25.70;98.70;;;;;;5034274;28;19932;-62
2021/06/29 12:03:55;;;;;;;;;;;25.50;98.40;;;;;;5033194;28;19939;-62
2021/06/29 12:06:57;;;;;;;;;;;25.30;98.50;;;;;;5034169;28;19925;-62
2021/06/29 12:09:46;;;;;;;;;;;25.00;99.00;;;;;;5034268;28;19932;-62
2021/06/29 12:12:35;;;;;;;;;;;24.50;99.30;;;;;;5035471;28;19929;-63
2021/06/29 12:15:26;;;;;;;;;;;24.70;99.90;;;;;;5026824;28;19931;-63
2021/06/29 12:18:15;;;;;;;;;;;25.20;99.90;;;;;;5034474;28;19925;-62
2021/06/29 12:21:06;;;;;;;;;;;25.40;98.80;;;;;;5036106;28;19974;-63
2021/06/29 12:23:55;;;;;;;;;;;25.50;99.60;;;;;;5035562;28;19932;-63
2021/06/29 12:26:44;;;;;;;;;;;25.20;98.50;;;;;;5036087;28;19925;-62
2021/06/29 12:29:36;;;;;;;;;;;25.20;97.90;;;;;;5031152;28;20003;-62
2021/06/29 12:32:26;;;;;;;;;;;25.30;98.50;;;;;;5029843;28;19925;-62
2021/06/29 12:35:15;;;;;;;;;;;25.70;98.70;;;;;;5022601;28;19926;-62
2021/06/29 12:38:06;;;;;;;;;;;26.10;98.20;;;;;;5038660;28;19940;-63
2021/06/29 12:40:55;;;;;;;;;;;26.20;97.50;;;;;;5033817;28;20056;-63
2021/06/29 12:43:45;;;;;;;;;;;25.60;98.00;;;;;;5035708;28;19979;-62
2021/06/29 12:46:36;;;;;;;;;;;25.50;99.20;;;;;;5027962;28;19929;-63
2021/06/29 12:49:27;;;;;;;;;;;25.60;98.50;;;;;;5034823;28;19929;-63
2021/06/29 12:52:18;;;;;;;;;;;25.60;97.50;;;;;;5030207;28;20214;-62
2021/06/29 12:55:08;;;;;;;;;;;25.30;98.60;;;;;;5035635;28;19959;-63
2021/06/29 12:58:04;;;;;;;;;;;25.20;98.30;;;;;;5034432;28;20377;-62
2021/06/29 13:00:54;;;;;;;;;;;25.20;98.00;;;;;;5026927;28;20277;-62
2021/06/29 13:03:43;;;;;;;;;;;25.40;98.30;;;;;;5037616;28;19937;-63
2021/06/29 13:06:33;;;;;;;;;;;25.80;97.90;;;;;;5034935;28;19948;-62
2021/06/29 13:09:22;;;;;;;;;;;26.20;97.40;;;;;;5033510;28;20257;-62
2021/06/29 13:12:13;;;;;;;;;;;26.40;96.60;;;;;;5033954;28;20026;-62
2021/06/29 13:15:04;;;;;;;;;;;26.20;97.00;;;;;;5034389;28;19926;-62
2021/06/29 13:17:55;;;;;;;;;;;26.20;96.80;;;;;;5033542;28;19933;-63
2021/06/29 13:20:44;;;;;;;;;;;26.00;96.00;;;;;;5036434;28;20356;-62
2021/06/29 13:23:35;;;;;;;;;;;26.00;95.90;;;;;;5034534;28;19945;-62
2021/06/29 13:26:24;;;;;;;;;;;26.20;96.00;;;;;;5033372;28;19936;-61
2021/06/29 13:29:12;;;;;;;;;;;26.50;95.70;;;;;;5035056;28;20333;-62
2021/06/29 13:32:01;;;;;;;;;;;26.60;96.00;;;;;;5004475;28;19925;-63
2021/06/29 13:34:59;;;;;;;;;;;26.60;96.20;;;;;;5032948;28;19929;-62
2021/06/29 13:37:50;;;;;;;;;;;26.70;95.80;;;;;;5033065;28;20361;-63
2021/06/29 13:40:43;;;;;;;;;;;26.70;96.80;;;;;;5032249;28;19933;-62
2021/06/29 13:43:32;;;;;;;;;;;26.60;96.40;;;;;;5031119;28;19984;-61
2021/06/29 13:46:23;;;;;;;;;;;26.80;96.10;;;;;;5028490;28;19932;-61
2021/06/29 13:49:16;;;;;;;;;;;27.10;94.90;;;;;;5032040;28;19926;-61
2021/06/29 13:52:10;;;;;;;;;;;27.30;95.10;;;;;;5032697;28;19940;-61
2021/06/29 13:55:09;;;;;;;;;;;27.50;96.00;;;;;;5032114;28;20026;-61
2021/06/29 13:58:12;;;;;;;;;;;27.40;94.00;;;;;;5032244;28;19925;-62
2021/06/29 14:01:04;;;;;;;;;;;27.00;94.00;;;;;;4998726;28;19936;-62
2021/06/29 14:04:01;;;;;;;;;;;26.90;94.10;;;;;;5012404;28;19926;-62
2021/06/29 14:06:49;;;;;;;;;;;26.50;92.90;;;;;;5013186;28;19932;-62
2021/06/29 14:09:38;;;;;;;;;;;27.00;93.40;;;;;;5012362;28;19952;-61
2021/06/29 14:12:28;;;;;;;;;;;26.60;93.70;;;;;;5017516;28;19925;-62
2021/06/29 14:15:17;;;;;;;;;;;26.40;94.80;;;;;;5006773;28;20057;-61
2021/06/29 14:18:07;;;;;;;;;;;26.30;95.90;;;;;;5014076;28;19926;-62
2021/06/29 14:20:56;;;;;;;;;;;26.40;95.20;;;;;;5006273;28;20024;-62
2021/06/29 14:23:47;;;;;;;;;;;26.20;94.80;;;;;;5015173;28;19933;-60
2021/06/29 14:26:36;;;;;;;;;;;26.30;95.00;;;;;;5007452;28;19925;-62
2021/06/29 14:29:24;;;;;;;;;;;26.50;94.60;;;;;;5007435;28;19925;-61
2021/06/29 14:32:13;;;;;;;;;;;26.90;93.90;;;;;;4992307;28;19933;-60
2021/06/29 14:35:03;;;;;;;;;;;27.20;93.10;;;;;;5001925;28;19941;-60
2021/06/29 14:37:52;;;;;;;;;;;26.80;94.00;;;;;;5012021;28;20389;-60
2021/06/29 14:40:41;;;;;;;;;;;27.00;94.00;;;;;;5011112;28;20285;-62
2021/06/29 14:43:29;;;;;;;;;;;27.30;94.20;;;;;;5005783;28;19929;-62
2021/06/29 14:46:18;;;;;;;;;;;27.40;94.00;;;;;;5010434;28;19926;-62
2021/06/29 14:49:09;;;;;;;;;;;27.60;93.60;;;;;;5016382;28;20499;-64
2021/06/29 14:52:07;;;;;;;;;;;27.50;93.20;;;;;;5017654;28;20424;-63
2021/06/29 14:54:55;;;;;;;;;;;27.00;94.30;;;;;;5003374;28;20249;-62
2021/06/29 14:57:44;;;;;;;;;;;26.60;95.90;;;;;;5012836;28;19934;-62
2021/06/29 15:00:33;;;;;;;;;;;26.60;96.20;;;;;;5022275;28;19952;-62
2021/06/29 15:03:22;;;;;;;;;;;26.70;96.10;;;;;;5033572;28;20029;-62
2021/06/29 15:06:10;;;;;;;;;;;26.80;95.70;;;;;;5026807;28;20376;-62
2021/06/29 15:09:00;;;;;;;;;;;27.00;94.70;;;;;;5032786;28;19999;-63
2021/06/29 15:11:49;;;;;;;;;;;27.10;94.50;;;;;;5013210;28;19929;-62
2021/06/29 15:14:38;;;;;;;;;;;26.80;94.40;;;;;;5017746;28;19937;-63
2021/06/29 15:17:26;;;;;;;;;;;26.70;94.40;;;;;;5012559;28;19929;-61
2021/06/29 15:20:16;;;;;;;;;;;26.40;94.60;;;;;;5019754;28;19926;-61
2021/06/29 15:23:05;;;;;;;;;;;26.10;94.40;;;;;;5024672;28;20383;-66
2021/06/29 15:26:20;;;;;;;;;;;25.80;94.70;;;;;;5016676;28;19968;-61
2021/06/29 15:29:09;;;;;;;;;;;25.60;95.50;;;;;;5027823;28;19932;-62
2021/06/29 15:31:59;;;;;;;;;;;25.20;97.10;;;;;;5029913;28;19924;-63
2021/06/29 15:34:48;;;;;;;;;;;25.00;97.90;;;;;;5027976;28;19936;-65
2021/06/29 15:37:38;;;;;;;;;;;22.60;95.20;;;;;;5028937;28;19925;-62
2021/06/29 15:40:28;;;;;;;;;;;21.00;97.10;;;;;;5028728;28;19933;-63
2021/06/29 15:43:18;;;;;;;;;;;19.70;99.90;;;;;;5030356;28;19925;-63
2021/06/29 15:46:07;;;;;;;;;;;18.90;99.90;;;;;;5023480;28;20381;-62
2021/06/29 15:48:56;;;;;;;;;;;18.40;99.90;;;;;;5028049;28;19929;-61
2021/06/29 15:54:57;;;;;;;;;;;17.80;99.90;;;;;;5028069;28;19925;-63
2021/06/29 15:57:46;;;;;;;;;;;17.70;99.90;;;;;;5030121;28;19933;-61
2021/06/29 16:00:36;;;;;;;;;;;17.50;99.90;;;;;;5024290;28;19948;-62
2021/06/29 16:03:24;;;;;;;;;;;17.40;99.90;;;;;;5021435;28;19991;-62
2021/06/29 16:06:13;;;;;;;;;;;17.40;99.90;;;;;;5031828;28;20047;-62
2021/06/29 16:09:01;;;;;;;;;;;17.30;99.90;;;;;;5036993;28;19936;-62
2021/06/29 16:11:50;;;;;;;;;;;17.20;99.90;;;;;;5031647;28;19992;-62
2021/06/29 16:14:39;;;;;;;;;;;17.10;99.90;;;;;;5033636;28;19925;-63
2021/06/29 16:17:29;;;;;;;;;;;17.00;99.90;;;;;;5028061;28;19929;-63
2021/06/29 16:20:22;;;;;;;;;;;16.90;99.90;;;;;;5030183;28;19995;-63
2021/06/29 16:23:11;;;;;;;;;;;16.70;99.90;;;;;;5022960;28;19925;-65
2021/06/29 16:25:59;;;;;;;;;;;16.50;99.90;;;;;;5031303;28;20007;-62
2021/06/29 16:28:49;;;;;;;;;;;16.30;99.90;;;;;;5018327;28;19945;-63
2021/06/29 16:31:38;;;;;;;;;;;16.20;99.90;;;;;;5026698;28;19929;-62
2021/06/29 16:34:28;;;;;;;;;;;16.10;99.90;;;;;;5031126;28;19933;-62
2021/06/29 16:37:16;;;;;;;;;;;16.00;99.90;;;;;;5031111;28;19948;-63
2021/06/29 16:40:05;;;;;;;;;;;15.90;99.90;;;;;;5032623;28;20075;-63
2021/06/29 16:43:19;;;;;;;;;;;15.90;99.90;;;;;;5030097;28;19929;-62
2021/06/29 16:46:08;;;;;;;;;;;15.90;99.90;;;;;;5024781;28;20000;-63
2021/06/29 16:48:57;;;;;;;;;;;15.90;99.90;;;;;;5031413;28;20388;-62
2021/06/29 16:52:10;;;;;;;;;;;15.80;99.90;;;;;;5033052;28;19925;-62
2021/06/29 16:55:03;;;;;;;;;;;15.90;99.90;;;;;;5032757;28;19936;-62